sensor_id;sensor_type;location;lat;lon;timestamp;temperature;humidity
41116;DHT22;26861;51.824;4.682;2024-01-27T00:01:33;15.90;62.10
41116;DHT22;26861;51.824;4.682;2024-01-27T00:03:59;16.00;63.50
41116;DHT22;26861;51.824;4.682;2024-01-27T00:06:25;16.00;63.20
41116;DHT22;26861;51.824;4.682;2024-01-27T00:08:51;15.90;63.30
41116;DHT22;26861;51.824;4.682;2024-01-27T00:11:17;15.90;63.20
41116;DHT22;26861;51.824;4.682;2024-01-27T00:13:42;15.90;63.20
41116;DHT22;26861;51.824;4.682;2024-01-27T00:16:08;15.90;63.30
41116;DHT22;26861;51.824;4.682;2024-01-27T00:18:37;15.90;63.40
41116;DHT22;26861;51.824;4.682;2024-01-27T00:21:03;15.90;63.60
41116;DHT22;26861;51.824;4.682;2024-01-27T00:23:29;15.90;62.90
41116;DHT22;26861;51.824;4.682;2024-01-27T00:25:55;15.90;63.20
41116;DHT22;26861;51.824;4.682;2024-01-27T00:28:20;15.90;63.50
41116;DHT22;26861;51.824;4.682;2024-01-27T00:30:46;15.90;63.20
41116;DHT22;26861;51.824;4.682;2024-01-27T00:33:11;15.80;63.40
41116;DHT22;26861;51.824;4.682;2024-01-27T00:35:37;15.90;63.10
41116;DHT22;26861;51.824;4.682;2024-01-27T00:38:02;15.90;63.00
41116;DHT22;26861;51.824;4.682;2024-01-27T00:40:28;15.80;63.10
41116;DHT22;26861;51.824;4.682;2024-01-27T00:42:53;15.80;62.70
41116;DHT22;26861;51.824;4.682;2024-01-27T00:45:19;15.80;63.10
41116;DHT22;26861;51.824;4.682;2024-01-27T00:47:45;15.90;63.00
41116;DHT22;26861;51.824;4.682;2024-01-27T00:50:11;15.70;63.20
41116;DHT22;26861;51.824;4.682;2024-01-27T00:52:36;15.80;63.20
41116;DHT22;26861;51.824;4.682;2024-01-27T00:55:02;15.80;63.50
41116;DHT22;26861;51.824;4.682;2024-01-27T00:57:27;15.80;62.80
41116;DHT22;26861;51.824;4.682;2024-01-27T00:59:53;15.80;63.20
41116;DHT22;26861;51.824;4.682;2024-01-27T01:02:18;15.80;62.80
41116;DHT22;26861;51.824;4.682;2024-01-27T01:04:44;15.70;63.30
41116;DHT22;26861;51.824;4.682;2024-01-27T01:07:10;15.70;63.00
41116;DHT22;26861;51.824;4.682;2024-01-27T01:09:35;15.70;63.20
41116;DHT22;26861;51.824;4.682;2024-01-27T01:12:01;15.70;63.10
41116;DHT22;26861;51.824;4.682;2024-01-27T01:14:27;15.60;62.60
41116;DHT22;26861;51.824;4.682;2024-01-27T01:16:53;15.70;63.10
41116;DHT22;26861;51.824;4.682;2024-01-27T01:19:18;15.70;63.00
41116;DHT22;26861;51.824;4.682;2024-01-27T01:21:44;15.60;62.90
41116;DHT22;26861;51.824;4.682;2024-01-27T01:24:09;15.60;63.20
41116;DHT22;26861;51.824;4.682;2024-01-27T01:26:35;15.60;63.20
41116;DHT22;26861;51.824;4.682;2024-01-27T01:29:00;15.60;63.10
41116;DHT22;26861;51.824;4.682;2024-01-27T01:31:26;15.60;63.10
41116;DHT22;26861;51.824;4.682;2024-01-27T01:33:51;15.60;63.00
41116;DHT22;26861;51.824;4.682;2024-01-27T01:36:17;15.60;62.90
41116;DHT22;26861;51.824;4.682;2024-01-27T01:38:42;17.20;64.10
41116;DHT22;26861;51.824;4.682;2024-01-27T01:41:08;15.50;63.10
41116;DHT22;26861;51.824;4.682;2024-01-27T01:43:33;15.60;63.00
41116;DHT22;26861;51.824;4.682;2024-01-27T01:45:59;15.50;63.20
41116;DHT22;26861;51.824;4.682;2024-01-27T01:48:24;15.50;62.90
41116;DHT22;26861;51.824;4.682;2024-01-27T01:50:50;15.50;63.00
41116;DHT22;26861;51.824;4.682;2024-01-27T01:53:15;15.60;63.30
41116;DHT22;26861;51.824;4.682;2024-01-27T01:55:41;15.50;63.10
41116;DHT22;26861;51.824;4.682;2024-01-27T01:58:07;15.50;63.20
41116;DHT22;26861;51.824;4.682;2024-01-27T02:00:32;15.40;63.00
41116;DHT22;26861;51.824;4.682;2024-01-27T02:02:58;15.50;62.90
41116;DHT22;26861;51.824;4.682;2024-01-27T02:05:23;15.50;63.10
41116;DHT22;26861;51.824;4.682;2024-01-27T02:07:49;15.50;63.10
41116;DHT22;26861;51.824;4.682;2024-01-27T02:10:15;15.50;62.90
41116;DHT22;26861;51.824;4.682;2024-01-27T02:12:44;15.40;62.90
41116;DHT22;26861;51.824;4.682;2024-01-27T02:15:13;14.10;62.30
41116;DHT22;26861;51.824;4.682;2024-01-27T02:17:41;15.40;58.60
41116;DHT22;26861;51.824;4.682;2024-01-27T02:20:07;15.40;63.00
41116;DHT22;26861;51.824;4.682;2024-01-27T02:22:36;15.40;62.20
41116;DHT22;26861;51.824;4.682;2024-01-27T02:25:02;15.40;63.20
41116;DHT22;26861;51.824;4.682;2024-01-27T02:27:28;15.40;62.80
41116;DHT22;26861;51.824;4.682;2024-01-27T02:29:54;15.40;63.20
41116;DHT22;26861;51.824;4.682;2024-01-27T02:32:19;15.40;63.30
41116;DHT22;26861;51.824;4.682;2024-01-27T02:34:45;15.40;63.00
41116;DHT22;26861;51.824;4.682;2024-01-27T02:37:10;15.40;63.40
41116;DHT22;26861;51.824;4.682;2024-01-27T02:39:36;15.30;63.20
41116;DHT22;26861;51.824;4.682;2024-01-27T02:42:01;15.30;63.30
41116;DHT22;26861;51.824;4.682;2024-01-27T02:44:27;15.20;63.20
41116;DHT22;26861;51.824;4.682;2024-01-27T02:46:52;15.30;63.60
41116;DHT22;26861;51.824;4.682;2024-01-27T02:49:18;15.40;63.40
41116;DHT22;26861;51.824;4.682;2024-01-27T02:51:43;15.40;63.40
41116;DHT22;26861;51.824;4.682;2024-01-27T02:54:09;15.30;63.50
41116;DHT22;26861;51.824;4.682;2024-01-27T02:56:35;15.30;63.60
41116;DHT22;26861;51.824;4.682;2024-01-27T02:59:00;15.30;63.60
41116;DHT22;26861;51.824;4.682;2024-01-27T03:01:26;15.30;63.30
41116;DHT22;26861;51.824;4.682;2024-01-27T03:03:51;15.20;63.70
41116;DHT22;26861;51.824;4.682;2024-01-27T03:06:17;15.30;63.70
41116;DHT22;26861;51.824;4.682;2024-01-27T03:08:43;15.30;63.50
41116;DHT22;26861;51.824;4.682;2024-01-27T03:11:08;15.20;63.40
41116;DHT22;26861;51.824;4.682;2024-01-27T03:13:33;15.30;63.60
41116;DHT22;26861;51.824;4.682;2024-01-27T03:15:59;15.20;63.40
41116;DHT22;26861;51.824;4.682;2024-01-27T03:18:24;15.60;63.70
41116;DHT22;26861;51.824;4.682;2024-01-27T03:20:50;15.20;63.70
41116;DHT22;26861;51.824;4.682;2024-01-27T03:23:16;15.20;63.60
41116;DHT22;26861;51.824;4.682;2024-01-27T03:25:41;15.20;63.50
41116;DHT22;26861;51.824;4.682;2024-01-27T03:28:07;15.20;63.60
41116;DHT22;26861;51.824;4.682;2024-01-27T03:30:32;15.20;63.70
41116;DHT22;26861;51.824;4.682;2024-01-27T03:32:58;15.20;63.50
41116;DHT22;26861;51.824;4.682;2024-01-27T03:35:23;15.10;63.50
41116;DHT22;26861;51.824;4.682;2024-01-27T03:37:49;15.20;63.60
41116;DHT22;26861;51.824;4.682;2024-01-27T03:40:14;15.20;63.10
41116;DHT22;26861;51.824;4.682;2024-01-27T03:42:40;15.20;63.50
41116;DHT22;26861;51.824;4.682;2024-01-27T03:45:05;15.20;63.70
41116;DHT22;26861;51.824;4.682;2024-01-27T03:47:31;15.20;62.50
41116;DHT22;26861;51.824;4.682;2024-01-27T03:49:57;15.20;63.60
41116;DHT22;26861;51.824;4.682;2024-01-27T03:52:22;15.20;63.40
41116;DHT22;26861;51.824;4.682;2024-01-27T03:54:48;15.20;63.60
41116;DHT22;26861;51.824;4.682;2024-01-27T03:57:13;15.10;63.50
41116;DHT22;26861;51.824;4.682;2024-01-27T03:59:41;15.10;63.40
41116;DHT22;26861;51.824;4.682;2024-01-27T04:02:07;15.10;62.90
41116;DHT22;26861;51.824;4.682;2024-01-27T04:04:32;15.10;63.70
41116;DHT22;26861;51.824;4.682;2024-01-27T04:06:58;15.10;63.60
41116;DHT22;26861;51.824;4.682;2024-01-27T04:09:23;15.10;63.30
41116;DHT22;26861;51.824;4.682;2024-01-27T04:11:49;15.10;63.60
41116;DHT22;26861;51.824;4.682;2024-01-27T04:14:15;15.00;63.20
41116;DHT22;26861;51.824;4.682;2024-01-27T04:16:40;15.00;63.50
41116;DHT22;26861;51.824;4.682;2024-01-27T04:19:06;15.00;63.60
41116;DHT22;26861;51.824;4.682;2024-01-27T04:21:31;15.00;63.50
41116;DHT22;26861;51.824;4.682;2024-01-27T04:23:57;15.00;63.40
41116;DHT22;26861;51.824;4.682;2024-01-27T04:26:22;14.90;63.30
41116;DHT22;26861;51.824;4.682;2024-01-27T04:28:48;15.10;63.60
41116;DHT22;26861;51.824;4.682;2024-01-27T04:31:13;15.00;63.50
41116;DHT22;26861;51.824;4.682;2024-01-27T04:33:39;15.00;63.40
41116;DHT22;26861;51.824;4.682;2024-01-27T04:36:04;15.00;63.60
41116;DHT22;26861;51.824;4.682;2024-01-27T04:38:32;15.00;63.60
41116;DHT22;26861;51.824;4.682;2024-01-27T04:40:57;14.90;63.40
41116;DHT22;26861;51.824;4.682;2024-01-27T04:43:23;14.90;63.20
41116;DHT22;26861;51.824;4.682;2024-01-27T04:45:49;14.90;63.00
41116;DHT22;26861;51.824;4.682;2024-01-27T04:48:15;14.90;63.30
41116;DHT22;26861;51.824;4.682;2024-01-27T04:50:41;15.00;63.20
41116;DHT22;26861;51.824;4.682;2024-01-27T04:53:07;14.90;63.10
41116;DHT22;26861;51.824;4.682;2024-01-27T04:55:33;14.90;63.40
41116;DHT22;26861;51.824;4.682;2024-01-27T04:57:58;14.90;63.40
41116;DHT22;26861;51.824;4.682;2024-01-27T05:00:25;14.80;63.10
41116;DHT22;26861;51.824;4.682;2024-01-27T05:02:52;14.90;63.00
41116;DHT22;26861;51.824;4.682;2024-01-27T05:05:18;14.80;63.30
41116;DHT22;26861;51.824;4.682;2024-01-27T05:07:44;14.90;63.20
41116;DHT22;26861;51.824;4.682;2024-01-27T05:10:10;14.90;63.20
41116;DHT22;26861;51.824;4.682;2024-01-27T05:12:37;14.80;63.00
41116;DHT22;26861;51.824;4.682;2024-01-27T05:15:02;14.80;63.50
41116;DHT22;26861;51.824;4.682;2024-01-27T05:17:28;14.80;62.40
41116;DHT22;26861;51.824;4.682;2024-01-27T05:19:53;14.80;63.30
41116;DHT22;26861;51.824;4.682;2024-01-27T05:22:19;14.70;63.30
41116;DHT22;26861;51.824;4.682;2024-01-27T05:24:44;14.70;63.10
41116;DHT22;26861;51.824;4.682;2024-01-27T05:27:10;14.70;63.40
41116;DHT22;26861;51.824;4.682;2024-01-27T05:29:36;14.70;63.10
41116;DHT22;26861;51.824;4.682;2024-01-27T05:32:02;14.70;63.30
41116;DHT22;26861;51.824;4.682;2024-01-27T05:34:28;14.70;62.60
41116;DHT22;26861;51.824;4.682;2024-01-27T05:36:53;14.70;63.50
41116;DHT22;26861;51.824;4.682;2024-01-27T05:39:19;14.60;63.40
41116;DHT22;26861;51.824;4.682;2024-01-27T05:41:44;14.70;63.40
41116;DHT22;26861;51.824;4.682;2024-01-27T05:44:10;14.60;63.20
41116;DHT22;26861;51.824;4.682;2024-01-27T05:46:35;14.70;63.50
41116;DHT22;26861;51.824;4.682;2024-01-27T05:49:01;14.60;63.40
41116;DHT22;26861;51.824;4.682;2024-01-27T05:51:28;14.80;63.30
41116;DHT22;26861;51.824;4.682;2024-01-27T05:53:54;14.70;63.50
41116;DHT22;26861;51.824;4.682;2024-01-27T05:56:20;14.70;63.50
41116;DHT22;26861;51.824;4.682;2024-01-27T05:58:48;14.70;59.80
41116;DHT22;26861;51.824;4.682;2024-01-27T06:01:14;14.80;63.20
41116;DHT22;26861;51.824;4.682;2024-01-27T06:03:42;14.80;63.60
41116;DHT22;26861;51.824;4.682;2024-01-27T06:06:08;14.70;59.40
41116;DHT22;26861;51.824;4.682;2024-01-27T06:08:33;14.70;63.40
41116;DHT22;26861;51.824;4.682;2024-01-27T06:10:59;14.70;63.40
41116;DHT22;26861;51.824;4.682;2024-01-27T06:13:24;14.80;63.60
41116;DHT22;26861;51.824;4.682;2024-01-27T06:15:50;14.70;63.80
41116;DHT22;26861;51.824;4.682;2024-01-27T06:18:16;14.80;63.40
41116;DHT22;26861;51.824;4.682;2024-01-27T06:20:41;14.80;63.50
41116;DHT22;26861;51.824;4.682;2024-01-27T06:23:07;14.60;63.10
41116;DHT22;26861;51.824;4.682;2024-01-27T06:25:33;14.70;64.00
41116;DHT22;26861;51.824;4.682;2024-01-27T06:27:58;14.60;64.10
41116;DHT22;26861;51.824;4.682;2024-01-27T06:30:24;14.70;64.10
41116;DHT22;26861;51.824;4.682;2024-01-27T06:32:50;14.70;64.00
41116;DHT22;26861;51.824;4.682;2024-01-27T06:35:16;14.80;64.10
41116;DHT22;26861;51.824;4.682;2024-01-27T06:37:42;14.70;64.00
41116;DHT22;26861;51.824;4.682;2024-01-27T06:40:09;14.60;64.00
41116;DHT22;26861;51.824;4.682;2024-01-27T06:42:35;14.60;63.20
41116;DHT22;26861;51.824;4.682;2024-01-27T06:45:01;14.60;64.10
41116;DHT22;26861;51.824;4.682;2024-01-27T06:47:27;14.70;64.30
41116;DHT22;26861;51.824;4.682;2024-01-27T06:49:53;14.40;64.40
41116;DHT22;26861;51.824;4.682;2024-01-27T06:52:18;14.70;64.40
41116;DHT22;26861;51.824;4.682;2024-01-27T06:54:44;14.50;64.20
41116;DHT22;26861;51.824;4.682;2024-01-27T06:59:46;14.70;60.20
41116;DHT22;26861;51.824;4.682;2024-01-27T07:02:12;14.70;64.30
41116;DHT22;26861;51.824;4.682;2024-01-27T07:04:39;15.10;64.70
41116;DHT22;26861;51.824;4.682;2024-01-27T07:07:05;14.60;64.80
41116;DHT22;26861;51.824;4.682;2024-01-27T07:09:31;14.60;64.90
41116;DHT22;26861;51.824;4.682;2024-01-27T07:11:57;14.60;65.20
41116;DHT22;26861;51.824;4.682;2024-01-27T07:14:23;14.60;64.50
41116;DHT22;26861;51.824;4.682;2024-01-27T07:16:49;14.60;64.70
41116;DHT22;26861;51.824;4.682;2024-01-27T07:19:15;14.60;64.60
41116;DHT22;26861;51.824;4.682;2024-01-27T07:21:42;14.60;64.60
41116;DHT22;26861;51.824;4.682;2024-01-27T07:24:08;14.60;64.20
41116;DHT22;26861;51.824;4.682;2024-01-27T07:26:33;14.60;64.50
41116;DHT22;26861;51.824;4.682;2024-01-27T07:29:00;14.60;64.40
41116;DHT22;26861;51.824;4.682;2024-01-27T07:31:25;14.60;64.40
41116;DHT22;26861;51.824;4.682;2024-01-27T07:33:51;14.70;64.30
41116;DHT22;26861;51.824;4.682;2024-01-27T07:36:17;14.70;64.60
41116;DHT22;26861;51.824;4.682;2024-01-27T07:38:42;14.60;64.60
41116;DHT22;26861;51.824;4.682;2024-01-27T07:41:08;14.60;64.50
41116;DHT22;26861;51.824;4.682;2024-01-27T07:43:33;14.60;64.50
41116;DHT22;26861;51.824;4.682;2024-01-27T07:45:59;14.60;64.30
41116;DHT22;26861;51.824;4.682;2024-01-27T07:48:24;14.60;64.10
41116;DHT22;26861;51.824;4.682;2024-01-27T07:50:50;14.60;64.60
41116;DHT22;26861;51.824;4.682;2024-01-27T07:53:16;14.60;64.20
41116;DHT22;26861;51.824;4.682;2024-01-27T07:55:41;14.50;64.10
41116;DHT22;26861;51.824;4.682;2024-01-27T07:58:07;14.50;64.40
41116;DHT22;26861;51.824;4.682;2024-01-27T08:00:32;14.80;64.30
41116;DHT22;26861;51.824;4.682;2024-01-27T08:02:58;14.40;63.70
41116;DHT22;26861;51.824;4.682;2024-01-27T08:05:23;14.60;64.30
41116;DHT22;26861;51.824;4.682;2024-01-27T08:07:49;14.60;64.50
41116;DHT22;26861;51.824;4.682;2024-01-27T08:10:15;14.50;63.60
41116;DHT22;26861;51.824;4.682;2024-01-27T08:12:40;14.50;64.10
41116;DHT22;26861;51.824;4.682;2024-01-27T08:15:06;14.50;64.10
41116;DHT22;26861;51.824;4.682;2024-01-27T08:17:32;14.50;63.30
41116;DHT22;26861;51.824;4.682;2024-01-27T08:19:58;14.70;64.60
41116;DHT22;26861;51.824;4.682;2024-01-27T08:22:24;14.50;64.30
41116;DHT22;26861;51.824;4.682;2024-01-27T08:24:50;14.30;64.10
41116;DHT22;26861;51.824;4.682;2024-01-27T08:27:15;14.50;64.30
41116;DHT22;26861;51.824;4.682;2024-01-27T08:29:41;14.40;64.40
41116;DHT22;26861;51.824;4.682;2024-01-27T08:32:06;14.40;64.40
41116;DHT22;26861;51.824;4.682;2024-01-27T08:34:32;14.40;63.30
41116;DHT22;26861;51.824;4.682;2024-01-27T08:36:59;14.50;64.20
41116;DHT22;26861;51.824;4.682;2024-01-27T08:39:25;14.50;64.20
41116;DHT22;26861;51.824;4.682;2024-01-27T08:41:51;14.40;64.10
41116;DHT22;26861;51.824;4.682;2024-01-27T08:44:16;14.50;64.10
41116;DHT22;26861;51.824;4.682;2024-01-27T08:46:45;14.50;64.00
41116;DHT22;26861;51.824;4.682;2024-01-27T08:49:10;14.20;59.60
41116;DHT22;26861;51.824;4.682;2024-01-27T08:51:36;14.60;64.00
41116;DHT22;26861;51.824;4.682;2024-01-27T08:54:01;14.60;64.00
41116;DHT22;26861;51.824;4.682;2024-01-27T08:56:26;14.40;64.00
41116;DHT22;26861;51.824;4.682;2024-01-27T08:58:52;14.40;64.20
41116;DHT22;26861;51.824;4.682;2024-01-27T09:01:18;14.40;63.80
41116;DHT22;26861;51.824;4.682;2024-01-27T09:03:44;14.50;64.30
41116;DHT22;26861;51.824;4.682;2024-01-27T09:06:09;14.50;63.90
41116;DHT22;26861;51.824;4.682;2024-01-27T09:08:35;14.50;63.70
41116;DHT22;26861;51.824;4.682;2024-01-27T09:11:02;14.50;63.90
41116;DHT22;26861;51.824;4.682;2024-01-27T09:13:28;14.50;63.30
41116;DHT22;26861;51.824;4.682;2024-01-27T09:15:54;14.50;63.50
41116;DHT22;26861;51.824;4.682;2024-01-27T09:18:20;14.50;63.60
41116;DHT22;26861;51.824;4.682;2024-01-27T09:20:46;14.50;63.80
41116;DHT22;26861;51.824;4.682;2024-01-27T09:23:12;14.50;63.60
41116;DHT22;26861;51.824;4.682;2024-01-27T09:25:38;14.60;63.70
41116;DHT22;26861;51.824;4.682;2024-01-27T09:28:04;14.50;63.50
41116;DHT22;26861;51.824;4.682;2024-01-27T09:30:30;14.50;63.20
41116;DHT22;26861;51.824;4.682;2024-01-27T09:32:55;14.50;63.60
41116;DHT22;26861;51.824;4.682;2024-01-27T09:35:20;14.60;63.70
41116;DHT22;26861;51.824;4.682;2024-01-27T09:37:46;14.60;63.60
41116;DHT22;26861;51.824;4.682;2024-01-27T09:40:12;14.50;63.60
41116;DHT22;26861;51.824;4.682;2024-01-27T09:42:37;14.50;63.60
41116;DHT22;26861;51.824;4.682;2024-01-27T09:45:04;14.60;63.20
41116;DHT22;26861;51.824;4.682;2024-01-27T09:47:30;14.60;62.90
41116;DHT22;26861;51.824;4.682;2024-01-27T09:49:55;14.60;63.40
41116;DHT22;26861;51.824;4.682;2024-01-27T09:52:22;14.60;63.40
41116;DHT22;26861;51.824;4.682;2024-01-27T09:54:48;14.60;63.50
41116;DHT22;26861;51.824;4.682;2024-01-27T09:57:14;14.60;63.40
41116;DHT22;26861;51.824;4.682;2024-01-27T09:59:41;14.70;63.60
41116;DHT22;26861;51.824;4.682;2024-01-27T10:02:09;14.70;63.00
41116;DHT22;26861;51.824;4.682;2024-01-27T10:04:37;14.40;63.60
41116;DHT22;26861;51.824;4.682;2024-01-27T10:07:03;14.80;63.80
41116;DHT22;26861;51.824;4.682;2024-01-27T10:09:29;14.80;62.60
41116;DHT22;26861;51.824;4.682;2024-01-27T10:11:55;14.80;63.40
41116;DHT22;26861;51.824;4.682;2024-01-27T10:14:20;14.90;63.40
41116;DHT22;26861;51.824;4.682;2024-01-27T10:16:46;14.90;63.20
41116;DHT22;26861;51.824;4.682;2024-01-27T10:19:15;14.90;63.30
41116;DHT22;26861;51.824;4.682;2024-01-27T10:21:43;15.00;63.80
41116;DHT22;26861;51.824;4.682;2024-01-27T10:24:08;15.00;63.50
41116;DHT22;26861;51.824;4.682;2024-01-27T10:26:34;15.00;63.50
41116;DHT22;26861;51.824;4.682;2024-01-27T10:29:00;15.00;63.20
41116;DHT22;26861;51.824;4.682;2024-01-27T10:31:36;15.10;63.50
41116;DHT22;26861;51.824;4.682;2024-01-27T10:34:01;15.10;58.90
41116;DHT22;26861;51.824;4.682;2024-01-27T10:36:42;15.10;63.60
41116;DHT22;26861;51.824;4.682;2024-01-27T10:39:21;15.20;58.90
41116;DHT22;26861;51.824;4.682;2024-01-27T10:41:47;15.20;59.00
41116;DHT22;26861;51.824;4.682;2024-01-27T10:44:14;15.30;63.70
41116;DHT22;26861;51.824;4.682;2024-01-27T10:46:41;15.30;63.50
41116;DHT22;26861;51.824;4.682;2024-01-27T10:49:08;15.20;63.40
41116;DHT22;26861;51.824;4.682;2024-01-27T10:51:37;15.30;63.70
41116;DHT22;26861;51.824;4.682;2024-01-27T10:54:04;15.40;63.50
41116;DHT22;26861;51.824;4.682;2024-01-27T10:56:32;15.40;63.00
41116;DHT22;26861;51.824;4.682;2024-01-27T10:59:00;15.40;61.90
41116;DHT22;26861;51.824;4.682;2024-01-27T11:01:26;15.60;62.70
41116;DHT22;26861;51.824;4.682;2024-01-27T11:03:53;15.50;63.20
41116;DHT22;26861;51.824;4.682;2024-01-27T11:06:20;15.60;63.60
41116;DHT22;26861;51.824;4.682;2024-01-27T11:08:47;15.60;63.40
41116;DHT22;26861;51.824;4.682;2024-01-27T11:11:13;15.60;63.30
41116;DHT22;26861;51.824;4.682;2024-01-27T11:13:38;15.60;63.20
41116;DHT22;26861;51.824;4.682;2024-01-27T11:16:04;15.70;63.40
41116;DHT22;26861;51.824;4.682;2024-01-27T11:18:30;15.70;62.70
41116;DHT22;26861;51.824;4.682;2024-01-27T11:20:56;15.80;64.00
41116;DHT22;26861;51.824;4.682;2024-01-27T11:23:31;15.80;63.40
41116;DHT22;26861;51.824;4.682;2024-01-27T11:26:05;15.80;63.40
41116;DHT22;26861;51.824;4.682;2024-01-27T11:28:31;15.90;58.90
41116;DHT22;26861;51.824;4.682;2024-01-27T11:30:57;15.90;63.10
41116;DHT22;26861;51.824;4.682;2024-01-27T11:33:25;16.00;63.10
41116;DHT22;26861;51.824;4.682;2024-01-27T11:36:00;16.10;58.80
41116;DHT22;26861;51.824;4.682;2024-01-27T11:38:26;16.10;62.80
41116;DHT22;26861;51.824;4.682;2024-01-27T11:40:51;16.00;62.80
41116;DHT22;26861;51.824;4.682;2024-01-27T11:43:17;16.10;62.70
41116;DHT22;26861;51.824;4.682;2024-01-27T11:45:43;16.20;62.90
41116;DHT22;26861;51.824;4.682;2024-01-27T11:48:09;16.20;62.40
41116;DHT22;26861;51.824;4.682;2024-01-27T11:50:34;16.20;62.80
41116;DHT22;26861;51.824;4.682;2024-01-27T11:53:00;16.30;62.80
41116;DHT22;26861;51.824;4.682;2024-01-27T11:55:25;16.40;62.60
41116;DHT22;26861;51.824;4.682;2024-01-27T11:57:51;16.50;62.50
41116;DHT22;26861;51.824;4.682;2024-01-27T12:02:42;16.60;62.20
41116;DHT22;26861;51.824;4.682;2024-01-27T12:05:08;16.50;62.20
41116;DHT22;26861;51.824;4.682;2024-01-27T12:07:34;16.60;62.40
41116;DHT22;26861;51.824;4.682;2024-01-27T12:09:59;16.60;62.30
41116;DHT22;26861;51.824;4.682;2024-01-27T12:12:25;16.40;61.90
41116;DHT22;26861;51.824;4.682;2024-01-27T12:14:50;16.70;62.30
41116;DHT22;26861;51.824;4.682;2024-01-27T12:17:17;16.70;62.10
41116;DHT22;26861;51.824;4.682;2024-01-27T12:19:50;16.80;62.10
41116;DHT22;26861;51.824;4.682;2024-01-27T12:22:20;16.80;57.90
41116;DHT22;26861;51.824;4.682;2024-01-27T12:24:46;16.70;62.10
41116;DHT22;26861;51.824;4.682;2024-01-27T12:27:11;16.80;62.20
41116;DHT22;26861;51.824;4.682;2024-01-27T12:29:37;16.80;62.20
41116;DHT22;26861;51.824;4.682;2024-01-27T12:32:02;16.80;62.20
41116;DHT22;26861;51.824;4.682;2024-01-27T12:34:28;16.80;62.00
41116;DHT22;26861;51.824;4.682;2024-01-27T12:36:55;16.80;62.60
41116;DHT22;26861;51.824;4.682;2024-01-27T12:39:21;16.70;62.60
41116;DHT22;26861;51.824;4.682;2024-01-27T12:41:46;16.80;62.70
41116;DHT22;26861;51.824;4.682;2024-01-27T12:44:19;16.80;62.40
41116;DHT22;26861;51.824;4.682;2024-01-27T12:46:44;16.90;62.70
41116;DHT22;26861;51.824;4.682;2024-01-27T12:49:10;16.80;62.50
41116;DHT22;26861;51.824;4.682;2024-01-27T12:51:36;16.80;62.90
41116;DHT22;26861;51.824;4.682;2024-01-27T12:54:01;17.30;62.40
41116;DHT22;26861;51.824;4.682;2024-01-27T12:56:27;17.00;62.80
41116;DHT22;26861;51.824;4.682;2024-01-27T12:58:52;16.80;62.70
41116;DHT22;26861;51.824;4.682;2024-01-27T13:01:18;16.90;61.80
41116;DHT22;26861;51.824;4.682;2024-01-27T13:03:43;16.60;62.50
41116;DHT22;26861;51.824;4.682;2024-01-27T13:06:09;16.90;62.30
41116;DHT22;26861;51.824;4.682;2024-01-27T13:08:36;17.00;62.50
41116;DHT22;26861;51.824;4.682;2024-01-27T13:11:01;16.90;62.40
41116;DHT22;26861;51.824;4.682;2024-01-27T13:13:28;16.90;61.80
41116;DHT22;26861;51.824;4.682;2024-01-27T13:15:53;17.00;62.50
41116;DHT22;26861;51.824;4.682;2024-01-27T13:18:18;16.90;62.40
41116;DHT22;26861;51.824;4.682;2024-01-27T13:20:44;16.90;62.40
41116;DHT22;26861;51.824;4.682;2024-01-27T13:23:09;16.90;62.70
41116;DHT22;26861;51.824;4.682;2024-01-27T13:25:35;16.90;62.60
41116;DHT22;26861;51.824;4.682;2024-01-27T13:28:01;16.80;62.60
41116;DHT22;26861;51.824;4.682;2024-01-27T13:30:26;16.80;62.80
41116;DHT22;26861;51.824;4.682;2024-01-27T13:32:53;16.80;62.70
41116;DHT22;26861;51.824;4.682;2024-01-27T13:35:19;16.80;63.10
41116;DHT22;26861;51.824;4.682;2024-01-27T13:37:45;16.80;62.80
41116;DHT22;26861;51.824;4.682;2024-01-27T13:40:11;16.70;62.90
41116;DHT22;26861;51.824;4.682;2024-01-27T13:42:37;16.70;63.20
41116;DHT22;26861;51.824;4.682;2024-01-27T13:45:03;16.70;63.10
41116;DHT22;26861;51.824;4.682;2024-01-27T13:47:30;16.80;62.00
41116;DHT22;26861;51.824;4.682;2024-01-27T13:49:56;16.70;63.40
41116;DHT22;26861;51.824;4.682;2024-01-27T13:52:21;16.80;63.30
41116;DHT22;26861;51.824;4.682;2024-01-27T13:54:47;16.70;63.60
41116;DHT22;26861;51.824;4.682;2024-01-27T13:57:14;16.70;63.70
41116;DHT22;26861;51.824;4.682;2024-01-27T13:59:40;16.60;63.80
41116;DHT22;26861;51.824;4.682;2024-01-27T14:02:05;16.70;63.50
41116;DHT22;26861;51.824;4.682;2024-01-27T14:04:31;16.70;63.70
41116;DHT22;26861;51.824;4.682;2024-01-27T14:06:56;16.50;64.00
41116;DHT22;26861;51.824;4.682;2024-01-27T14:09:22;16.60;63.60
41116;DHT22;26861;51.824;4.682;2024-01-27T14:11:48;16.50;63.90
41116;DHT22;26861;51.824;4.682;2024-01-27T14:14:13;16.50;64.10
41116;DHT22;26861;51.824;4.682;2024-01-27T14:16:39;16.50;63.90
41116;DHT22;26861;51.824;4.682;2024-01-27T14:19:05;16.50;64.00
41116;DHT22;26861;51.824;4.682;2024-01-27T14:21:31;16.50;64.20
41116;DHT22;26861;51.824;4.682;2024-01-27T14:23:56;16.50;64.00
41116;DHT22;26861;51.824;4.682;2024-01-27T14:26:27;16.50;64.20
41116;DHT22;26861;51.824;4.682;2024-01-27T14:28:53;16.30;64.20
41116;DHT22;26861;51.824;4.682;2024-01-27T14:31:19;16.40;64.20
41116;DHT22;26861;51.824;4.682;2024-01-27T14:33:44;16.40;64.10
41116;DHT22;26861;51.824;4.682;2024-01-27T14:36:10;16.50;64.00
41116;DHT22;26861;51.824;4.682;2024-01-27T14:38:37;16.40;64.00
41116;DHT22;26861;51.824;4.682;2024-01-27T14:41:02;16.40;64.10
41116;DHT22;26861;51.824;4.682;2024-01-27T14:43:28;16.40;63.50
41116;DHT22;26861;51.824;4.682;2024-01-27T14:45:54;16.40;63.90
41116;DHT22;26861;51.824;4.682;2024-01-27T14:48:20;16.40;63.60
41116;DHT22;26861;51.824;4.682;2024-01-27T14:50:46;16.50;64.00
41116;DHT22;26861;51.824;4.682;2024-01-27T14:53:14;16.40;63.60
41116;DHT22;26861;51.824;4.682;2024-01-27T14:55:40;16.40;63.30
41116;DHT22;26861;51.824;4.682;2024-01-27T14:58:05;16.40;63.40
41116;DHT22;26861;51.824;4.682;2024-01-27T15:00:31;16.40;63.80
41116;DHT22;26861;51.824;4.682;2024-01-27T15:02:56;16.50;63.40
41116;DHT22;26861;51.824;4.682;2024-01-27T15:05:22;16.40;63.50
41116;DHT22;26861;51.824;4.682;2024-01-27T15:07:49;16.50;60.70
41116;DHT22;26861;51.824;4.682;2024-01-27T15:10:14;16.50;63.80
41116;DHT22;26861;51.824;4.682;2024-01-27T15:12:40;16.30;63.00
41116;DHT22;26861;51.824;4.682;2024-01-27T15:15:05;16.50;63.80
41116;DHT22;26861;51.824;4.682;2024-01-27T15:17:32;16.50;63.10
41116;DHT22;26861;51.824;4.682;2024-01-27T15:19:57;16.40;63.60
41116;DHT22;26861;51.824;4.682;2024-01-27T15:22:23;16.50;63.70
41116;DHT22;26861;51.824;4.682;2024-01-27T15:24:48;16.50;63.70
41116;DHT22;26861;51.824;4.682;2024-01-27T15:27:15;16.40;63.40